Latest Weather Observations for Frankston

IDV60801

Issued at 1:12 am EST Thursday 20 June 2019 (issued every 10 minutes, with the page automatically refreshed every 10 minutes)

About weather observations | Map of weather stations | Latest weather observations for VIC | Other Formats
Station Details ID: 086371 Name: FRANKSTON AWS Lat: -38.15 Lon: 145.12 Height: 6.0 m
Data from the previous 72 hours. | See also: Recent months at Frankston
Date/Time
EST
Temp
°C
App
Temp
°C
Dew
Point
°C
Rel
Hum
%
Delta-T
°C
Wind Press
QNH
hPa
Press
MSL
hPa
Rain since
9am
mm
Dir  Spd
km/h
Gust
km/h
Spd
kts
Gust
kts
20/01:00am - - - - - SE 6 9 3 5 - - -
20/12:30am - - - - - N 6 9 3 5 - - -
20/12:00am - - - - - SE 7 11 4 6 - - -
 
Date/Time
EST
Temp
°C
App
Temp
°C
Dew
Point
°C
Rel
Hum
%
Delta-T
°C
Wind Press
QNH
hPa
Press
MSL
hPa
Rain since
9am
mm
Dir  Spd
km/h
Gust
km/h
Spd
kts
Gust
kts
19/11:30pm - - - - - E 9 11 5 6 - - -
19/11:00pm - - - - - SE 7 9 4 5 - - -
19/10:30pm - - - - - ESE 6 9 3 5 - - -
19/10:00pm - - - - - E 6 9 3 5 - - -
19/09:30pm - - - - - CALM 0 7 0 4 - - -
19/09:00pm - - - - - ESE 4 7 2 4 - - -
19/08:30pm - - - - - SE 6 9 3 5 - - -
19/08:00pm - - - - - SSE 9 11 5 6 - - -
19/07:30pm - - - - - SSE 9 13 5 7 - - -
19/07:00pm - - - - - S 6 7 3 4 - - -
19/06:30pm - - - - - CALM 0 0 0 0 - - -
19/06:00pm - - - - - W 6 11 3 6 - - -
19/05:30pm - - - - - WSW 9 13 5 7 - - -
19/05:00pm - - - - - WNW 13 15 7 8 - - -
19/04:30pm - - - - - WNW 15 17 8 9 - - -
19/04:00pm - - - - - WNW 17 19 9 10 - - -
19/03:30pm - - - - - WNW 15 17 8 9 - - -
19/03:00pm - - - - - W 17 22 9 12 - - -
19/02:30pm - - - - - W 17 20 9 11 - - -
19/02:00pm - - - - - WNW 20 32 11 17 - - -
19/01:30pm - - - - - W 19 24 10 13 - - -
19/01:00pm - - - - - W 26 32 14 17 - - -
19/12:30pm - - - - - W 17 20 9 11 - - -
19/12:00pm - - - - - W 20 26 11 14 - - -
19/11:30am - - - - - W 15 17 8 9 - - -
19/11:00am - - - - - W 17 19 9 10 - - -
19/10:30am - - - - - W 24 30 13 16 - - -
19/10:00am - - - - - W 15 19 8 10 - - -
19/09:30am - - - - - W 20 28 11 15 - - -
19/09:00am - - - - - W 20 26 11 14 - - -
19/08:30am - - - - - WNW 22 28 12 15 - - -
19/08:00am - - - - - WNW 24 30 13 16 - - -
19/07:30am - - - - - SW 13 17 7 9 - - -
19/07:00am - - - - - W 26 30 14 16 - - -
19/06:30am - - - - - WSW 17 20 9 11 - - -
19/06:00am - - - - - W 17 26 9 14 - - -
19/05:30am - - - - - WSW 17 22 9 12 - - -
19/05:00am - - - - - WNW 19 24 10 13 - - -
19/04:30am - - - - - W 17 24 9 13 - - -
19/04:00am - - - - - W 19 24 10 13 - - -
19/03:30am - - - - - WNW 19 22 10 12 - - -
19/03:00am - - - - - W 26 30 14 16 - - -
19/02:30am - - - - - W 30 37 16 20 - - -
19/02:00am - - - - - WNW 24 30 13 16 - - -
19/01:30am - - - - - SE 7 9 4 5 - - -
19/01:00am - - - - - W 13 17 7 9 - - -
19/12:30am - - - - - WNW 17 20 9 11 - - -
19/12:00am - - - - - NW 15 19 8 10 - - -
 
Date/Time
EST
Temp
°C
App
Temp
°C
Dew
Point
°C
Rel
Hum
%
Delta-T
°C
Wind Press
QNH
hPa
Press
MSL
hPa
Rain since
9am
mm
Dir  Spd
km/h
Gust
km/h
Spd
kts
Gust
kts
18/11:30pm - - - - - W 24 37 13 20 - - -
18/11:00pm - - - - - W 24 30 13 16 - - -
18/10:30pm - - - - - W 26 33 14 18 - - -
18/10:00pm - - - - - W 41 52 22 28 - - -
18/09:51pm - - - - - WSW 28 50 15 27 - - -
18/09:30pm - - - - - W 28 41 15 22 - - -
18/09:00pm - - - - - W 28 33 15 18 - - -
18/08:30pm - - - - - W 32 37 17 20 - - -
18/08:00pm - - - - - W 24 32 13 17 - - -
18/07:30pm - - - - - W 19 24 10 13 - - -
18/07:00pm - - - - - W 22 28 12 15 - - -
18/06:30pm - - - - - W 35 46 19 25 - - -
18/06:00pm - - - - - W 30 37 16 20 - - -
18/05:30pm - - - - - WNW 35 44 19 24 - - -
18/05:21pm - - - - - WNW 28 35 15 19 - - -
18/05:00pm - - - - - SW 6 11 3 6 - - -
18/04:30pm - - - - - WSW 9 13 5 7 - - -
18/04:00pm - - - - - SSW 9 17 5 9 - - -
18/03:30pm - - - - - SW 13 17 7 9 - - -
18/03:00pm - - - - - SW 19 30 10 16 - - -
18/02:30pm - - - - - WSW 35 46 19 25 - - -
18/02:25pm - - - - - W 37 48 20 26 - - -
18/02:18pm - - - - - WSW 33 48 18 26 - - -
18/02:00pm - - - - - WSW 43 52 23 28 - - -
18/01:39pm - - - - - W 35 48 19 26 - - -
18/01:30pm - - - - - WNW 33 41 18 22 - - -
18/01:00pm - - - - - NW 32 37 17 20 - - -
18/12:30pm - - - - - NW 33 39 18 21 - - -
18/12:00pm - - - - - NW 35 43 19 23 - - -
18/11:30am - - - - - NNW 30 35 16 19 - - -
18/11:00am - - - - - N 30 35 16 19 - - -
18/10:30am - - - - - N 30 35 16 19 - - -
18/10:00am - - - - - NNW 33 39 18 21 - - -
18/09:30am - - - - - N 33 39 18 21 - - -
18/09:00am - - - - - N 37 48 20 26 - - -
18/08:30am - - - - - N 33 41 18 22 - - -
18/08:00am - - - - - N 35 39 19 21 - - -
18/07:30am - - - - - N 33 39 18 21 - - -
18/07:00am - - - - - N 33 41 18 22 - - -
18/06:30am - - - - - N 32 41 17 22 - - -
18/06:00am - - - - - N 37 46 20 25 - - -
18/05:30am - - - - - N 41 52 22 28 - - -
18/05:00am - - - - - N 43 56 23 30 - - -
18/04:30am - - - - - N 41 50 22 27 - - -
18/04:29am - - - - - N 39 50 21 27 - - -
18/04:00am - - - - - N 20 32 11 17 - - -
18/03:00am - - - - - NNE 17 26 9 14 - - -
18/02:30am - - - - - NNE 17 26 9 14 - - -
18/02:00am - - - - - NNE 19 26 10 14 - - -
18/01:30am - - - - - NE 17 26 9 14 - - -
18/01:00am - - - - - NNE 20 32 11 17 - - -
18/12:30am - - - - - NNE 24 32 13 17 - - -
18/12:00am - - - - - NNE 24 32 13 17 - - -
 
Date/Time
EST
Temp
°C
App
Temp
°C
Dew
Point
°C
Rel
Hum
%
Delta-T
°C
Wind Press
QNH
hPa
Press
MSL
hPa
Rain since
9am
mm
Dir  Spd
km/h
Gust
km/h
Spd
kts
Gust
kts
17/11:30pm - - - - - NNE 20 28 11 15 - - -
17/11:00pm - - - - - NNE 13 17 7 9 - - -
17/10:30pm - - - - - NE 11 17 6 9 - - -
17/10:00pm - - - - - NE 13 20 7 11 - - -
17/09:30pm - - - - - NE 15 20 8 11 - - -
17/09:00pm - - - - - NE 15 20 8 11 - - -
17/08:30pm - - - - - NE 13 19 7 10 - - -
17/08:00pm - - - - - NE 13 19 7 10 - - -
17/07:30pm - - - - - NE 13 19 7 10 - - -
17/07:00pm - - - - - NNE 9 15 5 8 - - -
17/06:30pm - - - - - NNW 17 22 9 12 - - -
17/06:00pm - - - - - NNW 15 19 8 10 - - -
17/05:30pm - - - - - N 20 24 11 13 - - -
17/05:00pm - - - - - N 17 20 9 11 - - -
17/04:30pm - - - - - NNW 13 19 7 10 - - -
17/04:00pm - - - - - CALM 0 0 0 0 - - -
17/03:30pm - - - - - CALM 0 0 0 0 - - -
17/03:00pm - - - - - CALM 0 0 0 0 - - -
17/02:30pm - - - - - NNE 6 7 3 4 - - -
17/02:00pm - - - - - CALM 0 6 0 3 - - -
17/01:30pm - - - - - N 2 9 1 5 - - -
17/01:00pm - - - - - CALM 0 6 0 3 - - -
17/12:30pm - - - - - N 7 9 4 5 - - -
17/12:00pm - - - - - NNW 6 7 3 4 - - -
17/11:30am - - - - - NW 7 9 4 5 - - -
17/11:00am - - - - - NNW 6 7 3 4 - - -
17/10:30am - - - - - N 7 7 4 4 - - -
17/10:00am - - - - - NNE 7 9 4 5 - - -
17/09:30am - - - - - NE 7 11 4 6 - - -
17/09:00am - - - - - NE 6 7 3 4 - - -
17/08:30am - - - - - E 6 7 3 4 - - -
17/08:00am - - - - - ESE 4 7 2 4 - - -
17/07:30am - - - - - E 7 9 4 5 - - -
17/07:00am - - - - - ESE 7 9 4 5 - - -
17/06:30am - - - - - ENE 4 9 2 5 - - -
17/06:00am - - - - - ESE 7 11 4 6 - - -
17/05:30am - - - - - E 7 11 4 6 - - -
17/05:00am - - - - - E 7 9 4 5 - - -
17/04:30am - - - - - E 7 7 4 4 - - -
17/04:00am - - - - - ESE 7 9 4 5 - - -
17/03:30am - - - - - ESE 7 9 4 5 - - -
17/03:00am - - - - - E 7 9 4 5 - - -
17/02:30am - - - - - E 7 7 4 4 - - -
17/02:00am - - - - - E 7 9 4 5 - - -
17/01:30am - - - - - E 7 9 4 5 - - -

Other formats

Comma delimited format used in spreadsheet applications
http://www.bom.gov.au/fwo/IDV60801/IDV60801.94871.axf

JavaScript Object Notation format (JSON) in row-major order
http://www.bom.gov.au/fwo/IDV60801/IDV60801.94871.json

Data quality

Most of these data are generated automatically and are frequently updated. Quality checks on data are not normally performed. It is possible for incorrect values to appear. Refer to information at About Latest Weather Observations and please check the disclaimer before using these data.